Bermuda Spirit — C6XT2 — position and weather

sailwx.info

Track history (hours):
 
Tides and Currents Weather Stations Pressure Air Temp Water Temp Dewpoint Dewpoint Depression Visibility Wind Speed Wind Dir Waves Ship Positions

Bermuda Spirit

Last reported at 2015-May-21 19:25 UTC. Time now 2015-May-22 16:03 UTC.
Position N 41°08' E 018°10'.

Length 274 m; draft 16 m.

Type: Tanker. MMSI: 311020900.

Date/timePositionNaut miles runAvg speedWind from/ knotsBaromVisibWave heightAir tempDewpointWater temp
2015-May-21 19:25N 41°08' E 018°10'1311.1
2015-May-21 18:14N 40°60' E 018°24'3910.5
2015-May-21 14:33N 40°26' E 018°49'1414.1
2015-May-21 13:34N 40°13' E 018°55'1615.9
2015-May-21 12:33N 39°58' E 019°01'1615.9
2015-May-21 11:34N 39°42' E 019°05'1515.0
2015-May-21 10:33N 39°28' E 019°10'1311.6
2015-May-21 09:28N 39°15' E 019°13'1010.8
2015-May-21 08:32N 39°05' E 019°16'1111.0
2015-May-21 07:33N 38°55' E 019°19'1110.8
2015-May-21 06:33N 38°44' E 019°23'1311.2
2015-May-21 05:22N 38°32' E 019°26'1113.5
2015-May-21 04:33N 38°21' E 019°30'5413.5
2015-May-21 00:33N 37°30' E 019°52'1514.0
2015-May-20 23:28N 37°17' E 020°02'1314.1
2015-May-20 22:33N 37°07' E 020°12'1414.0
2015-May-20 21:32N 36°55' E 020°22'203 8.4
2015-May-19 21:15N 37°39' E 024°31'4712.4
2015-May-19 17:25N 38°23' E 024°52'2110.7
2015-May-19 15:27N 38°42' E 025°05'  
2015-May-17 10:26N 41°23' E 029°09'0 0.3
2015-May-17 09:28N 41°23' E 029°09'0 0.3
2015-May-17 08:34N 41°24' E 029°09'0 0.3
2015-May-17 07:18N 41°24' E 029°08'2 0.2
2015-May-16 20:04N 41°25' E 029°06'0 0.3
2015-May-16 19:33N 41°25' E 029°06'2 2.3
2015-May-16 18:30N 41°27' E 029°07'10 9.5
2015-May-16 17:29N 41°29' E 029°20'1212.8
2015-May-16 16:34N 41°32' E 029°35'23412.3
2015-May-15 21:33N 43°17' E 034°17'1313.4
2015-May-15 20:33N 43°23' E 034°33'1313.2
2015-May-15 19:33N 43°29' E 034°50'1313.1
2015-May-15 18:33N 43°35' E 035°06'1313.1
2015-May-15 17:33N 43°41' E 035°22'1313.2
2015-May-15 16:34N 43°47' E 035°38'1313.2
2015-May-15 15:32N 43°53' E 035°55'3812.6
2015-May-15 12:32N 44°11' E 036°42'1312.5
2015-May-15 11:31N 44°16' E 036°58'2512.6
2015-May-15 09:31N 44°27' E 037°29'1212.7
2015-May-15 08:34N 44°33' E 037°44'9 9.1
2015-May-15 07:34N 44°42' E 037°50'1 0.7
2015-May-15 06:32N 44°42' E 037°50'0 0.0
2015-May-15 05:32N 44°42' E 037°50'0 0.0
2015-May-15 04:32N 44°42' E 037°50'0 0.0
2015-May-15 03:32N 44°42' E 037°50'0 0.0
2015-May-15 02:32N 44°42' E 037°50'0 0.0
2015-May-15 01:32N 44°42' E 037°50'0 0.0
2015-May-15 00:32N 44°42' E 037°50'0 0.0
2015-May-14 23:32N 44°42' E 037°50'0 0.0
2015-May-14 22:32N 44°42' E 037°50'0 0.0
2015-May-14 21:32N 44°42' E 037°50'0 0.0
2015-May-14 20:32N 44°42' E 037°50'0 0.0
2015-May-14 19:32N 44°42' E 037°50'0 0.0
2015-May-14 18:32N 44°42' E 037°50'0 0.0
2015-May-14 17:32N 44°42' E 037°50'0 0.0
2015-May-14 16:32N 44°42' E 037°50'0 0.0
2015-May-14 15:32N 44°42' E 037°50'0 0.0
2015-May-14 14:32N 44°42' E 037°50'0 0.0
2015-May-14 13:32N 44°42' E 037°50'0 0.0
2015-May-14 12:32N 44°42' E 037°50'0 0.0
2015-May-14 11:32N 44°42' E 037°50'0 0.0
2015-May-14 10:32N 44°42' E 037°50'0 0.0
2015-May-14 09:32N 44°42' E 037°50'0 0.0
2015-May-14 08:32N 44°42' E 037°50'0 0.0
2015-May-14 07:32N 44°42' E 037°50'0 0.0
2015-May-14 06:32N 44°42' E 037°50'0 0.5
2015-May-14 05:33N 44°42' E 037°50'6 6.1
2015-May-14 04:33N 44°36' E 037°52'1111.1
2015-May-14 03:33N 44°25' E 037°51'1 1.2
2015-May-14 02:30N 44°25' E 037°52'0 0.2
2015-May-14 01:33N 44°25' E 037°52'0 0.1
2015-May-14 00:27N 44°25' E 037°52'0 0.3
2015-May-13 23:33N 44°25' E 037°52'0 0.2
2015-May-13 22:27N 44°25' E 037°53'0 0.2
2015-May-13 21:33N 44°25' E 037°53'0 0.3
2015-May-13 20:34N 44°26' E 037°53'1 0.6
2015-May-13 19:34N 44°26' E 037°53'6 6.5
2015-May-13 18:34N 44°28' E 037°44'9 9.3
2015-May-13 17:34N 44°24' E 037°33'9 9.1
2015-May-13 16:34N 44°20' E 037°22'9 9.2
2015-May-13 15:33N 44°16' E 037°10'10 9.6
2015-May-13 14:34N 44°12' E 036°58'9 9.3
2015-May-13 13:33N 44°08' E 036°46'11 9.3
2015-May-13 12:22N 44°05' E 036°31'9 9.0
2015-May-13 11:22N 44°03' E 036°19'7 9.0
2015-May-13 10:33N 44°01' E 036°09'1110.6
2015-May-13 09:34N 43°58' E 035°55'1211.8
2015-May-13 08:34N 43°55' E 035°39'1110.9
2015-May-13 07:34N 43°52' E 035°25'1212.0
2015-May-13 06:33N 43°49' E 035°08'1414.3
2015-May-13 05:33N 43°45' E 034°49'1212.1
2015-May-13 04:34N 43°42' E 034°33'9 9.5
2015-May-13 03:33N 43°39' E 034°21'9 9.4
2015-May-13 02:33N 43°37' E 034°08'11 9.2
2015-May-13 01:24N 43°35' E 033°53'8 9.5
2015-May-13 00:32N 43°37' E 033°43'9 9.5
2015-May-12 23:32N 43°39' E 033°30'  
Track history (hours):
 
Tides and Currents Weather Stations Pressure Air Temp Water Temp Dewpoint Dewpoint Depression Visibility Wind Speed Wind Dir Waves Ship Positions

Bermuda Spirit

Last reported at 2015-May-21 19:25 UTC. Time now 2015-May-22 16:03 UTC.
Position N 41°08' E 018°10'.

Length 274 m; draft 16 m.

Type: Tanker. MMSI: 311020900.

Date/timePositionNaut miles runAvg speedWind from/ knotsBaromVisibWave heightAir tempDewpointWater temp
2015-May-21 19:25N 41°08' E 018°10'1311.1
2015-May-21 18:14N 40°60' E 018°24'3910.5
2015-May-21 14:33N 40°26' E 018°49'1414.1
2015-May-21 13:34N 40°13' E 018°55'1615.9
2015-May-21 12:33N 39°58' E 019°01'1615.9
2015-May-21 11:34N 39°42' E 019°05'1515.0
2015-May-21 10:33N 39°28' E 019°10'1311.6
2015-May-21 09:28N 39°15' E 019°13'1010.8
2015-May-21 08:32N 39°05' E 019°16'1111.0
2015-May-21 07:33N 38°55' E 019°19'1110.8
2015-May-21 06:33N 38°44' E 019°23'1311.2
2015-May-21 05:22N 38°32' E 019°26'1113.5
2015-May-21 04:33N 38°21' E 019°30'5413.5
2015-May-21 00:33N 37°30' E 019°52'1514.0
2015-May-20 23:28N 37°17' E 020°02'1314.1
2015-May-20 22:33N 37°07' E 020°12'1414.0
2015-May-20 21:32N 36°55' E 020°22'203 8.4
2015-May-19 21:15N 37°39' E 024°31'4712.4
2015-May-19 17:25N 38°23' E 024°52'2110.7
2015-May-19 15:27N 38°42' E 025°05'  
2015-May-17 10:26N 41°23' E 029°09'0 0.3
2015-May-17 09:28N 41°23' E 029°09'0 0.3
2015-May-17 08:34N 41°24' E 029°09'0 0.3
2015-May-17 07:18N 41°24' E 029°08'2 0.2
2015-May-16 20:04N 41°25' E 029°06'0 0.3
2015-May-16 19:33N 41°25' E 029°06'2 2.3
2015-May-16 18:30N 41°27' E 029°07'10 9.5
2015-May-16 17:29N 41°29' E 029°20'1212.8
2015-May-16 16:34N 41°32' E 029°35'23412.3
2015-May-15 21:33N 43°17' E 034°17'1313.4
2015-May-15 20:33N 43°23' E 034°33'1313.2
2015-May-15 19:33N 43°29' E 034°50'1313.1
2015-May-15 18:33N 43°35' E 035°06'1313.1
2015-May-15 17:33N 43°41' E 035°22'1313.2
2015-May-15 16:34N 43°47' E 035°38'1313.2
2015-May-15 15:32N 43°53' E 035°55'3812.6
2015-May-15 12:32N 44°11' E 036°42'1312.5
2015-May-15 11:31N 44°16' E 036°58'2512.6
2015-May-15 09:31N 44°27' E 037°29'1212.7
2015-May-15 08:34N 44°33' E 037°44'9 9.1
2015-May-15 07:34N 44°42' E 037°50'1 0.7
2015-May-15 06:32N 44°42' E 037°50'0 0.0
2015-May-15 05:32N 44°42' E 037°50'0 0.0
2015-May-15 04:32N 44°42' E 037°50'0 0.0
2015-May-15 03:32N 44°42' E 037°50'0 0.0
2015-May-15 02:32N 44°42' E 037°50'0 0.0
2015-May-15 01:32N 44°42' E 037°50'0 0.0
2015-May-15 00:32N 44°42' E 037°50'0 0.0
2015-May-14 23:32N 44°42' E 037°50'0 0.0
2015-May-14 22:32N 44°42' E 037°50'0 0.0
2015-May-14 21:32N 44°42' E 037°50'0 0.0
2015-May-14 20:32N 44°42' E 037°50'0 0.0
2015-May-14 19:32N 44°42' E 037°50'0 0.0
2015-May-14 18:32N 44°42' E 037°50'0 0.0
2015-May-14 17:32N 44°42' E 037°50'0 0.0
2015-May-14 16:32N 44°42' E 037°50'0 0.0
2015-May-14 15:32N 44°42' E 037°50'0 0.0
2015-May-14 14:32N 44°42' E 037°50'0 0.0
2015-May-14 13:32N 44°42' E 037°50'0 0.0
2015-May-14 12:32N 44°42' E 037°50'0 0.0
2015-May-14 11:32N 44°42' E 037°50'0 0.0
2015-May-14 10:32N 44°42' E 037°50'0 0.0
2015-May-14 09:32N 44°42' E 037°50'0 0.0
2015-May-14 08:32N 44°42' E 037°50'0 0.0
2015-May-14 07:32N 44°42' E 037°50'0 0.0
2015-May-14 06:32N 44°42' E 037°50'0 0.5
2015-May-14 05:33N 44°42' E 037°50'6 6.1
2015-May-14 04:33N 44°36' E 037°52'1111.1
2015-May-14 03:33N 44°25' E 037°51'1 1.2
2015-May-14 02:30N 44°25' E 037°52'0 0.2
2015-May-14 01:33N 44°25' E 037°52'0 0.1
2015-May-14 00:27N 44°25' E 037°52'0 0.3
2015-May-13 23:33N 44°25' E 037°52'0 0.2
2015-May-13 22:27N 44°25' E 037°53'0 0.2
2015-May-13 21:33N 44°25' E 037°53'0 0.3
2015-May-13 20:34N 44°26' E 037°53'1 0.6
2015-May-13 19:34N 44°26' E 037°53'6 6.5
2015-May-13 18:34N 44°28' E 037°44'9 9.3
2015-May-13 17:34N 44°24' E 037°33'9 9.1
2015-May-13 16:34N 44°20' E 037°22'9 9.2
2015-May-13 15:33N 44°16' E 037°10'10 9.6
2015-May-13 14:34N 44°12' E 036°58'9 9.3
2015-May-13 13:33N 44°08' E 036°46'11 9.3
2015-May-13 12:22N 44°05' E 036°31'9 9.0
2015-May-13 11:22N 44°03' E 036°19'7 9.0
2015-May-13 10:33N 44°01' E 036°09'1110.6
2015-May-13 09:34N 43°58' E 035°55'1211.8
2015-May-13 08:34N 43°55' E 035°39'1110.9
2015-May-13 07:34N 43°52' E 035°25'1212.0
2015-May-13 06:33N 43°49' E 035°08'1414.3
2015-May-13 05:33N 43°45' E 034°49'1212.1
2015-May-13 04:34N 43°42' E 034°33'9 9.5
2015-May-13 03:33N 43°39' E 034°21'9 9.4
2015-May-13 02:33N 43°37' E 034°08'11 9.2
2015-May-13 01:24N 43°35' E 033°53'8 9.5
2015-May-13 00:32N 43°37' E 033°43'9 9.5
2015-May-12 23:32N 43°39' E 033°30'  

Dump ship's entire track history